<?xml version="1.0" encoding="UTF-8" standalone="no" ?>
<gpx xmlns="http://www.topografix.com/GPX/1/1" xmlns:xsi="http://www.w3.org/2001/XMLSchema-instance" xsi:schemaLocation="http://www.topografix.com/GPX/1/1 http://www.topografix.com/GPX/1/1/gpx.xsd" version="1.1" creator="VisuGPX - https://www.visugpx.com">
  <metadata>
    <name>Lacs Mont Coua</name>
    <desc><![CDATA[Depuis Méribel-Mottaret. Boucle par le passage des Eaux Noires, arrêt au refuge du Saut.]]></desc>
  </metadata>
  <trk>
    <name><![CDATA[2017-08-12-01]]></name>
    <trkseg>
      <trkpt lat="45.3676" lon="6.58439">
        <ele>1698.9</ele>
        <time>2017-08-12T06:06:32Z</time>
      </trkpt>
      <trkpt lat="45.3676" lon="6.58439">
        <ele>1698.9</ele>
        <time>2017-08-12T06:06:33Z</time>
      </trkpt>
      <trkpt lat="45.36731" lon="6.58489">
        <ele>1694.2</ele>
        <time>2017-08-12T06:10:34Z</time>
      </trkpt>
      <trkpt lat="45.36695" lon="6.58526">
        <ele>1693.5</ele>
        <time>2017-08-12T06:11:46Z</time>
      </trkpt>
      <trkpt lat="45.36656" lon="6.5856">
        <ele>1696.1</ele>
        <time>2017-08-12T06:12:27Z</time>
      </trkpt>
      <trkpt lat="45.36611" lon="6.58559">
        <ele>1701.6</ele>
        <time>2017-08-12T06:13:12Z</time>
      </trkpt>
      <trkpt lat="45.36567" lon="6.58545">
        <ele>1703</ele>
        <time>2017-08-12T06:13:54Z</time>
      </trkpt>
      <trkpt lat="45.36521" lon="6.58548">
        <ele>1704</ele>
        <time>2017-08-12T06:14:34Z</time>
      </trkpt>
      <trkpt lat="45.36476" lon="6.58562">
        <ele>1703.7</ele>
        <time>2017-08-12T06:15:15Z</time>
      </trkpt>
      <trkpt lat="45.36431" lon="6.58559">
        <ele>1705.6</ele>
        <time>2017-08-12T06:15:52Z</time>
      </trkpt>
      <trkpt lat="45.36389" lon="6.58531">
        <ele>1704</ele>
        <time>2017-08-12T06:16:29Z</time>
      </trkpt>
      <trkpt lat="45.36345" lon="6.58514">
        <ele>1704.5</ele>
        <time>2017-08-12T06:17:06Z</time>
      </trkpt>
      <trkpt lat="45.363" lon="6.58516">
        <ele>1706.9</ele>
        <time>2017-08-12T06:17:43Z</time>
      </trkpt>
      <trkpt lat="45.36259" lon="6.58544">
        <ele>1708.9</ele>
        <time>2017-08-12T06:18:49Z</time>
      </trkpt>
      <trkpt lat="45.36218" lon="6.58571">
        <ele>1706.6</ele>
        <time>2017-08-12T06:19:35Z</time>
      </trkpt>
      <trkpt lat="45.36184" lon="6.58615">
        <ele>1707.8</ele>
        <time>2017-08-12T06:20:16Z</time>
      </trkpt>
      <trkpt lat="45.36159" lon="6.58669">
        <ele>1705</ele>
        <time>2017-08-12T06:20:54Z</time>
      </trkpt>
      <trkpt lat="45.36128" lon="6.58717">
        <ele>1704.9</ele>
        <time>2017-08-12T06:21:32Z</time>
      </trkpt>
      <trkpt lat="45.36095" lon="6.58761">
        <ele>1707.5</ele>
        <time>2017-08-12T06:22:10Z</time>
      </trkpt>
      <trkpt lat="45.36068" lon="6.58814">
        <ele>1708.8</ele>
        <time>2017-08-12T06:22:51Z</time>
      </trkpt>
      <trkpt lat="45.36029" lon="6.58845">
        <ele>1708.7</ele>
        <time>2017-08-12T06:23:32Z</time>
      </trkpt>
      <trkpt lat="45.35991" lon="6.58882">
        <ele>1709.4</ele>
        <time>2017-08-12T06:24:18Z</time>
      </trkpt>
      <trkpt lat="45.35957" lon="6.58924">
        <ele>1710.1</ele>
        <time>2017-08-12T06:25:00Z</time>
      </trkpt>
      <trkpt lat="45.35934" lon="6.5898">
        <ele>1708.7</ele>
        <time>2017-08-12T06:25:42Z</time>
      </trkpt>
      <trkpt lat="45.35897" lon="6.59018">
        <ele>1712.3</ele>
        <time>2017-08-12T06:26:26Z</time>
      </trkpt>
      <trkpt lat="45.3586" lon="6.59054">
        <ele>1711.9</ele>
        <time>2017-08-12T06:28:23Z</time>
      </trkpt>
      <trkpt lat="45.35823" lon="6.59093">
        <ele>1711.6</ele>
        <time>2017-08-12T06:29:00Z</time>
      </trkpt>
      <trkpt lat="45.35788" lon="6.59135">
        <ele>1711.9</ele>
        <time>2017-08-12T06:29:37Z</time>
      </trkpt>
      <trkpt lat="45.35755" lon="6.59179">
        <ele>1711.5</ele>
        <time>2017-08-12T06:30:13Z</time>
      </trkpt>
      <trkpt lat="45.3572" lon="6.5922">
        <ele>1711.7</ele>
        <time>2017-08-12T06:30:50Z</time>
      </trkpt>
      <trkpt lat="45.35685" lon="6.5926">
        <ele>1714.1</ele>
        <time>2017-08-12T06:31:27Z</time>
      </trkpt>
      <trkpt lat="45.3565" lon="6.593">
        <ele>1714.9</ele>
        <time>2017-08-12T06:32:04Z</time>
      </trkpt>
      <trkpt lat="45.35617" lon="6.59344">
        <ele>1717.2</ele>
        <time>2017-08-12T06:32:48Z</time>
      </trkpt>
      <trkpt lat="45.35585" lon="6.59392">
        <ele>1718.1</ele>
        <time>2017-08-12T06:33:29Z</time>
      </trkpt>
      <trkpt lat="45.3558" lon="6.59457">
        <ele>1723.5</ele>
        <time>2017-08-12T06:34:16Z</time>
      </trkpt>
      <trkpt lat="45.35579" lon="6.59521">
        <ele>1728.4</ele>
        <time>2017-08-12T06:35:02Z</time>
      </trkpt>
      <trkpt lat="45.35565" lon="6.59582">
        <ele>1735.9</ele>
        <time>2017-08-12T06:35:58Z</time>
      </trkpt>
      <trkpt lat="45.35565" lon="6.59646">
        <ele>1745.4</ele>
        <time>2017-08-12T06:37:18Z</time>
      </trkpt>
      <trkpt lat="45.35602" lon="6.59684">
        <ele>1761.8</ele>
        <time>2017-08-12T06:38:52Z</time>
      </trkpt>
      <trkpt lat="45.35588" lon="6.59746">
        <ele>1766.3</ele>
        <time>2017-08-12T06:41:37Z</time>
      </trkpt>
      <trkpt lat="45.35621" lon="6.5979">
        <ele>1774.5</ele>
        <time>2017-08-12T06:42:42Z</time>
      </trkpt>
      <trkpt lat="45.35593" lon="6.59842">
        <ele>1783.3</ele>
        <time>2017-08-12T06:44:03Z</time>
      </trkpt>
      <trkpt lat="45.35591" lon="6.59907">
        <ele>1792.5</ele>
        <time>2017-08-12T06:45:00Z</time>
      </trkpt>
      <trkpt lat="45.35632" lon="6.59938">
        <ele>1801.2</ele>
        <time>2017-08-12T06:46:41Z</time>
      </trkpt>
      <trkpt lat="45.35635" lon="6.60002">
        <ele>1808.2</ele>
        <time>2017-08-12T06:47:56Z</time>
      </trkpt>
      <trkpt lat="45.35605" lon="6.6005">
        <ele>1818.2</ele>
        <time>2017-08-12T06:48:53Z</time>
      </trkpt>
      <trkpt lat="45.35579" lon="6.60104">
        <ele>1822.6</ele>
        <time>2017-08-12T06:49:49Z</time>
      </trkpt>
      <trkpt lat="45.35544" lon="6.60144">
        <ele>1834.5</ele>
        <time>2017-08-12T06:50:54Z</time>
      </trkpt>
      <trkpt lat="45.35574" lon="6.60191">
        <ele>1845.2</ele>
        <time>2017-08-12T06:52:11Z</time>
      </trkpt>
      <trkpt lat="45.35609" lon="6.60233">
        <ele>1854.4</ele>
        <time>2017-08-12T06:53:10Z</time>
      </trkpt>
      <trkpt lat="45.35648" lon="6.60267">
        <ele>1857.9</ele>
        <time>2017-08-12T06:53:58Z</time>
      </trkpt>
      <trkpt lat="45.35657" lon="6.6033">
        <ele>1862.3</ele>
        <time>2017-08-12T06:54:56Z</time>
      </trkpt>
      <trkpt lat="45.35648" lon="6.60394">
        <ele>1864.3</ele>
        <time>2017-08-12T06:55:54Z</time>
      </trkpt>
      <trkpt lat="45.3564" lon="6.60457">
        <ele>1875.4</ele>
        <time>2017-08-12T06:56:59Z</time>
      </trkpt>
      <trkpt lat="45.35652" lon="6.60519">
        <ele>1898.3</ele>
        <time>2017-08-12T06:59:00Z</time>
      </trkpt>
      <trkpt lat="45.35685" lon="6.60563">
        <ele>1909.8</ele>
        <time>2017-08-12T07:03:12Z</time>
      </trkpt>
      <trkpt lat="45.35723" lon="6.60599">
        <ele>1926.5</ele>
        <time>2017-08-12T07:04:32Z</time>
      </trkpt>
      <trkpt lat="45.3568" lon="6.60623">
        <ele>1941</ele>
        <time>2017-08-12T07:06:00Z</time>
      </trkpt>
      <trkpt lat="45.35695" lon="6.60684">
        <ele>1962.8</ele>
        <time>2017-08-12T07:09:11Z</time>
      </trkpt>
      <trkpt lat="45.35726" lon="6.6073">
        <ele>1971.1</ele>
        <time>2017-08-12T07:10:28Z</time>
      </trkpt>
      <trkpt lat="45.35763" lon="6.60767">
        <ele>1979.7</ele>
        <time>2017-08-12T07:11:27Z</time>
      </trkpt>
      <trkpt lat="45.35795" lon="6.60813">
        <ele>1992.5</ele>
        <time>2017-08-12T07:12:52Z</time>
      </trkpt>
      <trkpt lat="45.3579" lon="6.60877">
        <ele>2000.7</ele>
        <time>2017-08-12T07:14:14Z</time>
      </trkpt>
      <trkpt lat="45.35762" lon="6.60926">
        <ele>2002.1</ele>
        <time>2017-08-12T07:17:09Z</time>
      </trkpt>
      <trkpt lat="45.35734" lon="6.60977">
        <ele>2000</ele>
        <time>2017-08-12T07:18:08Z</time>
      </trkpt>
      <trkpt lat="45.35695" lon="6.6101">
        <ele>1997.6</ele>
        <time>2017-08-12T07:18:51Z</time>
      </trkpt>
      <trkpt lat="45.35656" lon="6.61044">
        <ele>1999.2</ele>
        <time>2017-08-12T07:19:38Z</time>
      </trkpt>
      <trkpt lat="45.35618" lon="6.61078">
        <ele>1999.4</ele>
        <time>2017-08-12T07:20:30Z</time>
      </trkpt>
      <trkpt lat="45.3558" lon="6.61112">
        <ele>2005.4</ele>
        <time>2017-08-12T07:21:54Z</time>
      </trkpt>
      <trkpt lat="45.35535" lon="6.61123">
        <ele>2001.9</ele>
        <time>2017-08-12T07:23:33Z</time>
      </trkpt>
      <trkpt lat="45.35495" lon="6.61155">
        <ele>2000</ele>
        <time>2017-08-12T07:24:22Z</time>
      </trkpt>
      <trkpt lat="45.3546" lon="6.61197">
        <ele>2005</ele>
        <time>2017-08-12T07:25:11Z</time>
      </trkpt>
      <trkpt lat="45.35425" lon="6.61237">
        <ele>2005.5</ele>
        <time>2017-08-12T07:26:01Z</time>
      </trkpt>
      <trkpt lat="45.35381" lon="6.61251">
        <ele>2008.7</ele>
        <time>2017-08-12T07:26:50Z</time>
      </trkpt>
      <trkpt lat="45.35337" lon="6.61272">
        <ele>2008.9</ele>
        <time>2017-08-12T07:27:34Z</time>
      </trkpt>
      <trkpt lat="45.35293" lon="6.6129">
        <ele>2010.5</ele>
        <time>2017-08-12T07:28:19Z</time>
      </trkpt>
      <trkpt lat="45.35248" lon="6.61296">
        <ele>2011.1</ele>
        <time>2017-08-12T07:29:01Z</time>
      </trkpt>
      <trkpt lat="45.35206" lon="6.61322">
        <ele>2011.1</ele>
        <time>2017-08-12T07:29:44Z</time>
      </trkpt>
      <trkpt lat="45.35174" lon="6.61368">
        <ele>2014.3</ele>
        <time>2017-08-12T07:30:28Z</time>
      </trkpt>
      <trkpt lat="45.3513" lon="6.61382">
        <ele>2015.1</ele>
        <time>2017-08-12T07:31:11Z</time>
      </trkpt>
      <trkpt lat="45.35087" lon="6.61402">
        <ele>2016.2</ele>
        <time>2017-08-12T07:31:53Z</time>
      </trkpt>
      <trkpt lat="45.35049" lon="6.61439">
        <ele>2016.9</ele>
        <time>2017-08-12T07:32:34Z</time>
      </trkpt>
      <trkpt lat="45.35013" lon="6.61478">
        <ele>2015.7</ele>
        <time>2017-08-12T07:33:17Z</time>
      </trkpt>
      <trkpt lat="45.34971" lon="6.61502">
        <ele>2019.5</ele>
        <time>2017-08-12T07:34:24Z</time>
      </trkpt>
      <trkpt lat="45.34928" lon="6.61523">
        <ele>2020.9</ele>
        <time>2017-08-12T07:35:10Z</time>
      </trkpt>
      <trkpt lat="45.34894" lon="6.61565">
        <ele>2021.8</ele>
        <time>2017-08-12T07:36:01Z</time>
      </trkpt>
      <trkpt lat="45.34852" lon="6.61589">
        <ele>2024.5</ele>
        <time>2017-08-12T07:37:08Z</time>
      </trkpt>
      <trkpt lat="45.34809" lon="6.6161">
        <ele>2023.4</ele>
        <time>2017-08-12T07:37:55Z</time>
      </trkpt>
      <trkpt lat="45.34769" lon="6.6164">
        <ele>2024.6</ele>
        <time>2017-08-12T07:39:06Z</time>
      </trkpt>
      <trkpt lat="45.34736" lon="6.61683">
        <ele>2026.5</ele>
        <time>2017-08-12T07:40:10Z</time>
      </trkpt>
      <trkpt lat="45.34698" lon="6.61719">
        <ele>2029.2</ele>
        <time>2017-08-12T07:40:58Z</time>
      </trkpt>
      <trkpt lat="45.34667" lon="6.61766">
        <ele>2030.1</ele>
        <time>2017-08-12T07:41:42Z</time>
      </trkpt>
      <trkpt lat="45.3463" lon="6.61802">
        <ele>2031.5</ele>
        <time>2017-08-12T07:42:29Z</time>
      </trkpt>
      <trkpt lat="45.3459" lon="6.61835">
        <ele>2034.8</ele>
        <time>2017-08-12T07:43:11Z</time>
      </trkpt>
      <trkpt lat="45.34564" lon="6.61888">
        <ele>2033.7</ele>
        <time>2017-08-12T07:43:54Z</time>
      </trkpt>
      <trkpt lat="45.34541" lon="6.61944">
        <ele>2035.8</ele>
        <time>2017-08-12T07:44:38Z</time>
      </trkpt>
      <trkpt lat="45.3452" lon="6.62001">
        <ele>2040.5</ele>
        <time>2017-08-12T07:51:50Z</time>
      </trkpt>
      <trkpt lat="45.3449" lon="6.62049">
        <ele>2044.3</ele>
        <time>2017-08-12T07:52:34Z</time>
      </trkpt>
      <trkpt lat="45.34461" lon="6.62098">
        <ele>2044.9</ele>
        <time>2017-08-12T07:53:19Z</time>
      </trkpt>
      <trkpt lat="45.34433" lon="6.62149">
        <ele>2047.1</ele>
        <time>2017-08-12T07:54:02Z</time>
      </trkpt>
      <trkpt lat="45.34409" lon="6.62204">
        <ele>2049.3</ele>
        <time>2017-08-12T07:54:43Z</time>
      </trkpt>
      <trkpt lat="45.34391" lon="6.62264">
        <ele>2052.8</ele>
        <time>2017-08-12T07:55:27Z</time>
      </trkpt>
      <trkpt lat="45.34378" lon="6.62327">
        <ele>2058.6</ele>
        <time>2017-08-12T07:56:13Z</time>
      </trkpt>
      <trkpt lat="45.34365" lon="6.62389">
        <ele>2062.2</ele>
        <time>2017-08-12T07:56:58Z</time>
      </trkpt>
      <trkpt lat="45.34356" lon="6.62452">
        <ele>2069.3</ele>
        <time>2017-08-12T07:57:54Z</time>
      </trkpt>
      <trkpt lat="45.34355" lon="6.62517">
        <ele>2073.8</ele>
        <time>2017-08-12T07:58:52Z</time>
      </trkpt>
      <trkpt lat="45.34337" lon="6.62575">
        <ele>2088.4</ele>
        <time>2017-08-12T08:00:24Z</time>
      </trkpt>
      <trkpt lat="45.34325" lon="6.62637">
        <ele>2102.6</ele>
        <time>2017-08-12T08:02:30Z</time>
      </trkpt>
      <trkpt lat="45.34299" lon="6.62702">
        <ele>2116</ele>
        <time>2017-08-12T08:04:18Z</time>
      </trkpt>
      <trkpt lat="45.34262" lon="6.62745">
        <ele>2114</ele>
        <time>2017-08-12T08:05:05Z</time>
      </trkpt>
      <trkpt lat="45.34235" lon="6.62799">
        <ele>2113</ele>
        <time>2017-08-12T08:05:49Z</time>
      </trkpt>
      <trkpt lat="45.34174" lon="6.63026">
        <ele>2114</ele>
        <time>2017-08-12T08:09:12Z</time>
      </trkpt>
      <trkpt lat="45.34132" lon="6.63059">
        <ele>2119</ele>
        <time>2017-08-12T08:09:56Z</time>
      </trkpt>
      <trkpt lat="45.34087" lon="6.63087">
        <ele>2138.3</ele>
        <time>2017-08-12T08:10:49Z</time>
      </trkpt>
      <trkpt lat="45.34049" lon="6.63121">
        <ele>2134.1</ele>
        <time>2017-08-12T08:13:50Z</time>
      </trkpt>
      <trkpt lat="45.34008" lon="6.6315">
        <ele>2132.9</ele>
        <time>2017-08-12T08:14:34Z</time>
      </trkpt>
      <trkpt lat="45.33962" lon="6.63154">
        <ele>2135</ele>
        <time>2017-08-12T08:15:41Z</time>
      </trkpt>
      <trkpt lat="45.33915" lon="6.63162">
        <ele>2151</ele>
        <time>2017-08-12T08:16:19Z</time>
      </trkpt>
      <trkpt lat="45.33869" lon="6.63179">
        <ele>2158</ele>
        <time>2017-08-12T08:17:02Z</time>
      </trkpt>
      <trkpt lat="45.33827" lon="6.63208">
        <ele>2157</ele>
        <time>2017-08-12T08:17:42Z</time>
      </trkpt>
      <trkpt lat="45.33793" lon="6.63251">
        <ele>2143.3</ele>
        <time>2017-08-12T08:18:30Z</time>
      </trkpt>
      <trkpt lat="45.33747" lon="6.63254">
        <ele>2140</ele>
        <time>2017-08-12T08:20:38Z</time>
      </trkpt>
      <trkpt lat="45.33706" lon="6.63222">
        <ele>2146</ele>
        <time>2017-08-12T08:21:30Z</time>
      </trkpt>
      <trkpt lat="45.33659" lon="6.63205">
        <ele>2136</ele>
        <time>2017-08-12T08:35:05Z</time>
      </trkpt>
      <trkpt lat="45.33612" lon="6.63188">
        <ele>2137</ele>
        <time>2017-08-12T08:35:50Z</time>
      </trkpt>
      <trkpt lat="45.33572" lon="6.63148">
        <ele>2137</ele>
        <time>2017-08-12T08:36:34Z</time>
      </trkpt>
      <trkpt lat="45.33532" lon="6.63109">
        <ele>2137</ele>
        <time>2017-08-12T08:37:18Z</time>
      </trkpt>
      <trkpt lat="45.3349" lon="6.63077">
        <ele>2137</ele>
        <time>2017-08-12T08:38:02Z</time>
      </trkpt>
      <trkpt lat="45.33454" lon="6.63035">
        <ele>2136</ele>
        <time>2017-08-12T08:39:06Z</time>
      </trkpt>
      <trkpt lat="45.33419" lon="6.62992">
        <ele>2137</ele>
        <time>2017-08-12T08:40:26Z</time>
      </trkpt>
      <trkpt lat="45.33385" lon="6.62945">
        <ele>2137</ele>
        <time>2017-08-12T08:42:06Z</time>
      </trkpt>
      <trkpt lat="45.33346" lon="6.62908">
        <ele>2136</ele>
        <time>2017-08-12T08:43:22Z</time>
      </trkpt>
      <trkpt lat="45.3331" lon="6.62869">
        <ele>2137</ele>
        <time>2017-08-12T08:44:22Z</time>
      </trkpt>
      <trkpt lat="45.33272" lon="6.6283">
        <ele>2136</ele>
        <time>2017-08-12T08:45:38Z</time>
      </trkpt>
      <trkpt lat="45.33234" lon="6.62796">
        <ele>2136</ele>
        <time>2017-08-12T08:47:02Z</time>
      </trkpt>
      <trkpt lat="45.3321" lon="6.62742">
        <ele>2138.7</ele>
        <time>2017-08-12T08:48:56Z</time>
      </trkpt>
      <trkpt lat="45.33175" lon="6.627">
        <ele>2143.1</ele>
        <time>2017-08-12T08:50:01Z</time>
      </trkpt>
      <trkpt lat="45.3313" lon="6.62694">
        <ele>2156.5</ele>
        <time>2017-08-12T08:51:04Z</time>
      </trkpt>
      <trkpt lat="45.33087" lon="6.62675">
        <ele>2209.1</ele>
        <time>2017-08-12T08:51:50Z</time>
      </trkpt>
      <trkpt lat="45.3304" lon="6.62677">
        <ele>2241.8</ele>
        <time>2017-08-12T08:52:49Z</time>
      </trkpt>
      <trkpt lat="45.32996" lon="6.62666">
        <ele>2248.4</ele>
        <time>2017-08-12T08:54:00Z</time>
      </trkpt>
      <trkpt lat="45.32958" lon="6.62631">
        <ele>2253.6</ele>
        <time>2017-08-12T08:55:35Z</time>
      </trkpt>
      <trkpt lat="45.32926" lon="6.62584">
        <ele>2258.7</ele>
        <time>2017-08-12T08:56:31Z</time>
      </trkpt>
      <trkpt lat="45.32901" lon="6.6253">
        <ele>2262.6</ele>
        <time>2017-08-12T08:57:23Z</time>
      </trkpt>
      <trkpt lat="45.32872" lon="6.62481">
        <ele>2265.1</ele>
        <time>2017-08-12T08:58:19Z</time>
      </trkpt>
      <trkpt lat="45.32848" lon="6.62427">
        <ele>2260.8</ele>
        <time>2017-08-12T08:59:11Z</time>
      </trkpt>
      <trkpt lat="45.32805" lon="6.62402">
        <ele>2268</ele>
        <time>2017-08-12T09:00:02Z</time>
      </trkpt>
      <trkpt lat="45.32765" lon="6.6243">
        <ele>2268.9</ele>
        <time>2017-08-12T09:01:50Z</time>
      </trkpt>
      <trkpt lat="45.3274" lon="6.62485">
        <ele>2271.1</ele>
        <time>2017-08-12T09:02:46Z</time>
      </trkpt>
      <trkpt lat="45.32696" lon="6.62503">
        <ele>2287.5</ele>
        <time>2017-08-12T09:09:03Z</time>
      </trkpt>
      <trkpt lat="45.32652" lon="6.62491">
        <ele>2303.1</ele>
        <time>2017-08-12T09:10:20Z</time>
      </trkpt>
      <trkpt lat="45.32619" lon="6.62446">
        <ele>2315.9</ele>
        <time>2017-08-12T09:11:50Z</time>
      </trkpt>
      <trkpt lat="45.32576" lon="6.62421">
        <ele>2320.2</ele>
        <time>2017-08-12T09:12:58Z</time>
      </trkpt>
      <trkpt lat="45.32531" lon="6.62417">
        <ele>2321.3</ele>
        <time>2017-08-12T09:13:56Z</time>
      </trkpt>
      <trkpt lat="45.32486" lon="6.62414">
        <ele>2333.4</ele>
        <time>2017-08-12T09:15:05Z</time>
      </trkpt>
      <trkpt lat="45.32441" lon="6.62404">
        <ele>2339.3</ele>
        <time>2017-08-12T09:16:03Z</time>
      </trkpt>
      <trkpt lat="45.32396" lon="6.62395">
        <ele>2340</ele>
        <time>2017-08-12T09:16:57Z</time>
      </trkpt>
      <trkpt lat="45.32353" lon="6.62378">
        <ele>2353.8</ele>
        <time>2017-08-12T09:18:32Z</time>
      </trkpt>
      <trkpt lat="45.32313" lon="6.62348">
        <ele>2362.5</ele>
        <time>2017-08-12T09:20:36Z</time>
      </trkpt>
      <trkpt lat="45.32268" lon="6.62354">
        <ele>2382</ele>
        <time>2017-08-12T09:22:24Z</time>
      </trkpt>
      <trkpt lat="45.32223" lon="6.6235">
        <ele>2395.1</ele>
        <time>2017-08-12T09:24:30Z</time>
      </trkpt>
      <trkpt lat="45.32182" lon="6.62379">
        <ele>2400.7</ele>
        <time>2017-08-12T09:25:27Z</time>
      </trkpt>
      <trkpt lat="45.32138" lon="6.62398">
        <ele>2404.8</ele>
        <time>2017-08-12T09:26:21Z</time>
      </trkpt>
      <trkpt lat="45.32095" lon="6.62416">
        <ele>2412.8</ele>
        <time>2017-08-12T09:27:26Z</time>
      </trkpt>
      <trkpt lat="45.32054" lon="6.62444">
        <ele>2419.4</ele>
        <time>2017-08-12T09:28:24Z</time>
      </trkpt>
      <trkpt lat="45.32008" lon="6.62445">
        <ele>2429.9</ele>
        <time>2017-08-12T09:29:27Z</time>
      </trkpt>
      <trkpt lat="45.31965" lon="6.62426">
        <ele>2437.5</ele>
        <time>2017-08-12T09:31:51Z</time>
      </trkpt>
      <trkpt lat="45.31921" lon="6.62413">
        <ele>2447.2</ele>
        <time>2017-08-12T09:33:08Z</time>
      </trkpt>
      <trkpt lat="45.31909" lon="6.62475">
        <ele>2439.7</ele>
        <time>2017-08-12T09:34:46Z</time>
      </trkpt>
      <trkpt lat="45.31912" lon="6.62539">
        <ele>2436.8</ele>
        <time>2017-08-12T09:35:45Z</time>
      </trkpt>
      <trkpt lat="45.319" lon="6.62602">
        <ele>2434.5</ele>
        <time>2017-08-12T09:36:44Z</time>
      </trkpt>
      <trkpt lat="45.31878" lon="6.62658">
        <ele>2444.3</ele>
        <time>2017-08-12T09:37:37Z</time>
      </trkpt>
      <trkpt lat="45.31856" lon="6.62715">
        <ele>2447.7</ele>
        <time>2017-08-12T09:38:35Z</time>
      </trkpt>
      <trkpt lat="45.31839" lon="6.62775">
        <ele>2455.7</ele>
        <time>2017-08-12T09:39:31Z</time>
      </trkpt>
      <trkpt lat="45.3184" lon="6.62839">
        <ele>2455.3</ele>
        <time>2017-08-12T09:40:32Z</time>
      </trkpt>
      <trkpt lat="45.31823" lon="6.629">
        <ele>2450.4</ele>
        <time>2017-08-12T09:41:46Z</time>
      </trkpt>
      <trkpt lat="45.31809" lon="6.62961">
        <ele>2463.1</ele>
        <time>2017-08-12T09:42:45Z</time>
      </trkpt>
      <trkpt lat="45.31778" lon="6.63009">
        <ele>2470.5</ele>
        <time>2017-08-12T09:43:48Z</time>
      </trkpt>
      <trkpt lat="45.31776" lon="6.63073">
        <ele>2483.7</ele>
        <time>2017-08-12T09:45:27Z</time>
      </trkpt>
      <trkpt lat="45.31798" lon="6.63129">
        <ele>2495.9</ele>
        <time>2017-08-12T09:46:39Z</time>
      </trkpt>
      <trkpt lat="45.31839" lon="6.63156">
        <ele>2506.5</ele>
        <time>2017-08-12T09:51:11Z</time>
      </trkpt>
      <trkpt lat="45.31876" lon="6.63194">
        <ele>2516.2</ele>
        <time>2017-08-12T09:52:42Z</time>
      </trkpt>
      <trkpt lat="45.31918" lon="6.63171">
        <ele>2539</ele>
        <time>2017-08-12T09:55:22Z</time>
      </trkpt>
      <trkpt lat="45.31917" lon="6.63235">
        <ele>2551.3</ele>
        <time>2017-08-12T09:58:44Z</time>
      </trkpt>
      <trkpt lat="45.31917" lon="6.63302">
        <ele>2578</ele>
        <time>2017-08-12T10:00:55Z</time>
      </trkpt>
      <trkpt lat="45.31899" lon="6.63361">
        <ele>2579.3</ele>
        <time>2017-08-12T10:02:13Z</time>
      </trkpt>
      <trkpt lat="45.31892" lon="6.63424">
        <ele>2594.6</ele>
        <time>2017-08-12T10:04:38Z</time>
      </trkpt>
      <trkpt lat="45.31914" lon="6.6348">
        <ele>2615.8</ele>
        <time>2017-08-12T10:07:59Z</time>
      </trkpt>
      <trkpt lat="45.31957" lon="6.63504">
        <ele>2615.4</ele>
        <time>2017-08-12T10:25:08Z</time>
      </trkpt>
      <trkpt lat="45.32002" lon="6.63491">
        <ele>2613.6</ele>
        <time>2017-08-12T10:26:23Z</time>
      </trkpt>
      <trkpt lat="45.32044" lon="6.63464">
        <ele>2615.2</ele>
        <time>2017-08-12T10:27:19Z</time>
      </trkpt>
      <trkpt lat="45.32086" lon="6.63486">
        <ele>2618.7</ele>
        <time>2017-08-12T10:28:25Z</time>
      </trkpt>
      <trkpt lat="45.32116" lon="6.63534">
        <ele>2601.7</ele>
        <time>2017-08-12T10:31:49Z</time>
      </trkpt>
      <trkpt lat="45.32158" lon="6.63561">
        <ele>2595.4</ele>
        <time>2017-08-12T10:32:49Z</time>
      </trkpt>
      <trkpt lat="45.32203" lon="6.63571">
        <ele>2593.3</ele>
        <time>2017-08-12T10:33:35Z</time>
      </trkpt>
      <trkpt lat="45.32228" lon="6.63625">
        <ele>2594.4</ele>
        <time>2017-08-12T10:34:57Z</time>
      </trkpt>
      <trkpt lat="45.32249" lon="6.63682">
        <ele>2593.5</ele>
        <time>2017-08-12T10:38:43Z</time>
      </trkpt>
      <trkpt lat="45.32269" lon="6.6374">
        <ele>2600.1</ele>
        <time>2017-08-12T10:40:08Z</time>
      </trkpt>
      <trkpt lat="45.32235" lon="6.63785">
        <ele>2607.9</ele>
        <time>2017-08-12T10:43:15Z</time>
      </trkpt>
      <trkpt lat="45.32192" lon="6.63808">
        <ele>2620</ele>
        <time>2017-08-12T10:44:36Z</time>
      </trkpt>
      <trkpt lat="45.32148" lon="6.6382">
        <ele>2632</ele>
        <time>2017-08-12T10:45:43Z</time>
      </trkpt>
      <trkpt lat="45.32104" lon="6.63839">
        <ele>2632.8</ele>
        <time>2017-08-12T10:51:23Z</time>
      </trkpt>
      <trkpt lat="45.32065" lon="6.63872">
        <ele>2645.6</ele>
        <time>2017-08-12T10:53:16Z</time>
      </trkpt>
      <trkpt lat="45.3204" lon="6.63929">
        <ele>2659</ele>
        <time>2017-08-12T10:56:03Z</time>
      </trkpt>
      <trkpt lat="45.32007" lon="6.63972">
        <ele>2673.3</ele>
        <time>2017-08-12T11:03:04Z</time>
      </trkpt>
      <trkpt lat="45.31967" lon="6.64001">
        <ele>2684.5</ele>
        <time>2017-08-12T11:07:48Z</time>
      </trkpt>
      <trkpt lat="45.31922" lon="6.64006">
        <ele>2701.4</ele>
        <time>2017-08-12T11:09:03Z</time>
      </trkpt>
      <trkpt lat="45.31879" lon="6.63987">
        <ele>2707.1</ele>
        <time>2017-08-12T11:09:51Z</time>
      </trkpt>
      <trkpt lat="45.31835" lon="6.64004">
        <ele>2704.4</ele>
        <time>2017-08-12T12:08:58Z</time>
      </trkpt>
      <trkpt lat="45.31789" lon="6.64008">
        <ele>2697.2</ele>
        <time>2017-08-12T12:10:35Z</time>
      </trkpt>
      <trkpt lat="45.31745" lon="6.64019">
        <ele>2695.2</ele>
        <time>2017-08-12T12:12:17Z</time>
      </trkpt>
      <trkpt lat="45.31699" lon="6.64021">
        <ele>2691.1</ele>
        <time>2017-08-12T12:13:58Z</time>
      </trkpt>
      <trkpt lat="45.31657" lon="6.64001">
        <ele>2689.4</ele>
        <time>2017-08-12T12:15:56Z</time>
      </trkpt>
      <trkpt lat="45.31619" lon="6.64037">
        <ele>2684.9</ele>
        <time>2017-08-12T12:16:58Z</time>
      </trkpt>
      <trkpt lat="45.31577" lon="6.64063">
        <ele>2679</ele>
        <time>2017-08-12T12:18:15Z</time>
      </trkpt>
      <trkpt lat="45.31569" lon="6.64126">
        <ele>2692.1</ele>
        <time>2017-08-12T12:19:54Z</time>
      </trkpt>
      <trkpt lat="45.31555" lon="6.64187">
        <ele>2721.3</ele>
        <time>2017-08-12T12:23:53Z</time>
      </trkpt>
      <trkpt lat="45.31548" lon="6.6425">
        <ele>2741.7</ele>
        <time>2017-08-12T12:26:02Z</time>
      </trkpt>
      <trkpt lat="45.31536" lon="6.64313">
        <ele>2755.2</ele>
        <time>2017-08-12T12:27:55Z</time>
      </trkpt>
      <trkpt lat="45.31514" lon="6.64369">
        <ele>2750.7</ele>
        <time>2017-08-12T12:32:28Z</time>
      </trkpt>
      <trkpt lat="45.31485" lon="6.64417">
        <ele>2754.9</ele>
        <time>2017-08-12T12:33:26Z</time>
      </trkpt>
      <trkpt lat="45.31464" lon="6.64475">
        <ele>2760</ele>
        <time>2017-08-12T12:34:43Z</time>
      </trkpt>
      <trkpt lat="45.31447" lon="6.64534">
        <ele>2767.4</ele>
        <time>2017-08-12T12:36:01Z</time>
      </trkpt>
      <trkpt lat="45.31429" lon="6.64594">
        <ele>2778.6</ele>
        <time>2017-08-12T12:37:15Z</time>
      </trkpt>
      <trkpt lat="45.31417" lon="6.64656">
        <ele>2788</ele>
        <time>2017-08-12T12:40:45Z</time>
      </trkpt>
      <trkpt lat="45.31416" lon="6.6472">
        <ele>2790.3</ele>
        <time>2017-08-12T12:41:54Z</time>
      </trkpt>
      <trkpt lat="45.31419" lon="6.64785">
        <ele>2792.8</ele>
        <time>2017-08-12T12:43:01Z</time>
      </trkpt>
      <trkpt lat="45.31463" lon="6.64792">
        <ele>2800.3</ele>
        <time>2017-08-12T12:45:15Z</time>
      </trkpt>
      <trkpt lat="45.31509" lon="6.64791">
        <ele>2795.4</ele>
        <time>2017-08-12T12:47:11Z</time>
      </trkpt>
      <trkpt lat="45.31553" lon="6.64781">
        <ele>2784.3</ele>
        <time>2017-08-12T12:48:54Z</time>
      </trkpt>
      <trkpt lat="45.31598" lon="6.6477">
        <ele>2779</ele>
        <time>2017-08-12T12:50:05Z</time>
      </trkpt>
      <trkpt lat="45.31642" lon="6.64763">
        <ele>2762.8</ele>
        <time>2017-08-12T12:51:55Z</time>
      </trkpt>
      <trkpt lat="45.31688" lon="6.64766">
        <ele>2740.3</ele>
        <time>2017-08-12T12:54:57Z</time>
      </trkpt>
      <trkpt lat="45.31733" lon="6.64771">
        <ele>2720.3</ele>
        <time>2017-08-12T12:57:32Z</time>
      </trkpt>
      <trkpt lat="45.31763" lon="6.64724">
        <ele>2732.9</ele>
        <time>2017-08-12T13:01:27Z</time>
      </trkpt>
      <trkpt lat="45.31808" lon="6.6471">
        <ele>2725.3</ele>
        <time>2017-08-12T13:03:27Z</time>
      </trkpt>
      <trkpt lat="45.31852" lon="6.64723">
        <ele>2674.9</ele>
        <time>2017-08-12T13:05:42Z</time>
      </trkpt>
      <trkpt lat="45.31895" lon="6.64703">
        <ele>2694.3</ele>
        <time>2017-08-12T13:09:57Z</time>
      </trkpt>
      <trkpt lat="45.3194" lon="6.64703">
        <ele>2678.5</ele>
        <time>2017-08-12T13:11:01Z</time>
      </trkpt>
      <trkpt lat="45.31984" lon="6.64685">
        <ele>2668.1</ele>
        <time>2017-08-12T13:12:26Z</time>
      </trkpt>
      <trkpt lat="45.32028" lon="6.64671">
        <ele>2648.1</ele>
        <time>2017-08-12T13:13:29Z</time>
      </trkpt>
      <trkpt lat="45.32072" lon="6.64659">
        <ele>2634.8</ele>
        <time>2017-08-12T13:14:51Z</time>
      </trkpt>
      <trkpt lat="45.32117" lon="6.64661">
        <ele>2628.4</ele>
        <time>2017-08-12T13:16:02Z</time>
      </trkpt>
      <trkpt lat="45.32157" lon="6.64694">
        <ele>2617.1</ele>
        <time>2017-08-12T13:18:11Z</time>
      </trkpt>
      <trkpt lat="45.32204" lon="6.64697">
        <ele>2610.4</ele>
        <time>2017-08-12T13:19:04Z</time>
      </trkpt>
      <trkpt lat="45.32239" lon="6.64658">
        <ele>2606.7</ele>
        <time>2017-08-12T13:20:10Z</time>
      </trkpt>
      <trkpt lat="45.32284" lon="6.64661">
        <ele>2589.7</ele>
        <time>2017-08-12T13:21:42Z</time>
      </trkpt>
      <trkpt lat="45.32329" lon="6.64669">
        <ele>2567.8</ele>
        <time>2017-08-12T13:23:27Z</time>
      </trkpt>
      <trkpt lat="45.32368" lon="6.64703">
        <ele>2551.9</ele>
        <time>2017-08-12T13:25:07Z</time>
      </trkpt>
      <trkpt lat="45.32409" lon="6.64731">
        <ele>2544.7</ele>
        <time>2017-08-12T13:26:17Z</time>
      </trkpt>
      <trkpt lat="45.32448" lon="6.64765">
        <ele>2533.3</ele>
        <time>2017-08-12T13:27:28Z</time>
      </trkpt>
      <trkpt lat="45.32482" lon="6.64806">
        <ele>2517.9</ele>
        <time>2017-08-12T13:28:34Z</time>
      </trkpt>
      <trkpt lat="45.32516" lon="6.64848">
        <ele>2500.9</ele>
        <time>2017-08-12T13:29:28Z</time>
      </trkpt>
      <trkpt lat="45.32556" lon="6.64882">
        <ele>2489.8</ele>
        <time>2017-08-12T13:30:25Z</time>
      </trkpt>
      <trkpt lat="45.32589" lon="6.64926">
        <ele>2476.8</ele>
        <time>2017-08-12T13:31:13Z</time>
      </trkpt>
      <trkpt lat="45.32635" lon="6.64916">
        <ele>2481.1</ele>
        <time>2017-08-12T13:32:01Z</time>
      </trkpt>
      <trkpt lat="45.32684" lon="6.64916">
        <ele>2483</ele>
        <time>2017-08-12T13:32:43Z</time>
      </trkpt>
      <trkpt lat="45.32729" lon="6.64915">
        <ele>2475</ele>
        <time>2017-08-12T13:33:27Z</time>
      </trkpt>
      <trkpt lat="45.32777" lon="6.64933">
        <ele>2475</ele>
        <time>2017-08-12T13:34:11Z</time>
      </trkpt>
      <trkpt lat="45.32823" lon="6.64929">
        <ele>2454.8</ele>
        <time>2017-08-12T13:35:23Z</time>
      </trkpt>
      <trkpt lat="45.32868" lon="6.64925">
        <ele>2435.4</ele>
        <time>2017-08-12T13:37:42Z</time>
      </trkpt>
      <trkpt lat="45.32913" lon="6.64925">
        <ele>2424.6</ele>
        <time>2017-08-12T13:40:19Z</time>
      </trkpt>
      <trkpt lat="45.32958" lon="6.64928">
        <ele>2402.3</ele>
        <time>2017-08-12T13:41:28Z</time>
      </trkpt>
      <trkpt lat="45.33001" lon="6.64908">
        <ele>2375.4</ele>
        <time>2017-08-12T13:42:46Z</time>
      </trkpt>
      <trkpt lat="45.33046" lon="6.64898">
        <ele>2370.3</ele>
        <time>2017-08-12T13:43:38Z</time>
      </trkpt>
      <trkpt lat="45.33087" lon="6.64872">
        <ele>2366.5</ele>
        <time>2017-08-12T13:44:33Z</time>
      </trkpt>
      <trkpt lat="45.33121" lon="6.64829">
        <ele>2359.6</ele>
        <time>2017-08-12T13:45:17Z</time>
      </trkpt>
      <trkpt lat="45.33141" lon="6.64772">
        <ele>2354.3</ele>
        <time>2017-08-12T13:46:03Z</time>
      </trkpt>
      <trkpt lat="45.33164" lon="6.64715">
        <ele>2348.7</ele>
        <time>2017-08-12T13:46:44Z</time>
      </trkpt>
      <trkpt lat="45.3318" lon="6.64655">
        <ele>2350.5</ele>
        <time>2017-08-12T13:48:37Z</time>
      </trkpt>
      <trkpt lat="45.33206" lon="6.64603">
        <ele>2350</ele>
        <time>2017-08-12T13:49:18Z</time>
      </trkpt>
      <trkpt lat="45.33218" lon="6.6454">
        <ele>2359.1</ele>
        <time>2017-08-12T13:50:02Z</time>
      </trkpt>
      <trkpt lat="45.33237" lon="6.64481">
        <ele>2350.1</ele>
        <time>2017-08-12T13:50:45Z</time>
      </trkpt>
      <trkpt lat="45.33265" lon="6.64428">
        <ele>2343.1</ele>
        <time>2017-08-12T13:51:22Z</time>
      </trkpt>
      <trkpt lat="45.33275" lon="6.64365">
        <ele>2346.1</ele>
        <time>2017-08-12T13:52:01Z</time>
      </trkpt>
      <trkpt lat="45.33286" lon="6.64302">
        <ele>2349.3</ele>
        <time>2017-08-12T13:52:38Z</time>
      </trkpt>
      <trkpt lat="45.33293" lon="6.64237">
        <ele>2351.2</ele>
        <time>2017-08-12T13:53:21Z</time>
      </trkpt>
      <trkpt lat="45.33306" lon="6.64175">
        <ele>2355.1</ele>
        <time>2017-08-12T13:54:04Z</time>
      </trkpt>
      <trkpt lat="45.33326" lon="6.64116">
        <ele>2343.4</ele>
        <time>2017-08-12T13:54:49Z</time>
      </trkpt>
      <trkpt lat="45.33349" lon="6.64061">
        <ele>2323.3</ele>
        <time>2017-08-12T13:56:44Z</time>
      </trkpt>
      <trkpt lat="45.33364" lon="6.64">
        <ele>2303.1</ele>
        <time>2017-08-12T13:57:46Z</time>
      </trkpt>
      <trkpt lat="45.33349" lon="6.63939">
        <ele>2296.7</ele>
        <time>2017-08-12T13:58:41Z</time>
      </trkpt>
      <trkpt lat="45.33315" lon="6.63896">
        <ele>2289.2</ele>
        <time>2017-08-12T13:59:27Z</time>
      </trkpt>
      <trkpt lat="45.33358" lon="6.63874">
        <ele>2272.1</ele>
        <time>2017-08-12T14:00:30Z</time>
      </trkpt>
      <trkpt lat="45.33393" lon="6.63833">
        <ele>2265.6</ele>
        <time>2017-08-12T14:01:16Z</time>
      </trkpt>
      <trkpt lat="45.33426" lon="6.63788">
        <ele>2250.5</ele>
        <time>2017-08-12T14:02:30Z</time>
      </trkpt>
      <trkpt lat="45.33459" lon="6.63745">
        <ele>2237.2</ele>
        <time>2017-08-12T14:03:41Z</time>
      </trkpt>
      <trkpt lat="45.33477" lon="6.63686">
        <ele>2208.8</ele>
        <time>2017-08-12T14:05:34Z</time>
      </trkpt>
      <trkpt lat="45.33497" lon="6.63628">
        <ele>2172.8</ele>
        <time>2017-08-12T14:07:31Z</time>
      </trkpt>
      <trkpt lat="45.33541" lon="6.63608">
        <ele>2154.1</ele>
        <time>2017-08-12T14:08:35Z</time>
      </trkpt>
      <trkpt lat="45.3358" lon="6.63574">
        <ele>2151.4</ele>
        <time>2017-08-12T14:09:21Z</time>
      </trkpt>
      <trkpt lat="45.33606" lon="6.63522">
        <ele>2146.9</ele>
        <time>2017-08-12T14:10:16Z</time>
      </trkpt>
      <trkpt lat="45.33649" lon="6.635">
        <ele>2138.1</ele>
        <time>2017-08-12T14:11:04Z</time>
      </trkpt>
      <trkpt lat="45.33687" lon="6.63465">
        <ele>2134.9</ele>
        <time>2017-08-12T14:11:42Z</time>
      </trkpt>
      <trkpt lat="45.33721" lon="6.63422">
        <ele>2132.7</ele>
        <time>2017-08-12T14:12:21Z</time>
      </trkpt>
      <trkpt lat="45.33739" lon="6.63363">
        <ele>2130.3</ele>
        <time>2017-08-12T14:12:58Z</time>
      </trkpt>
      <trkpt lat="45.3375" lon="6.63299">
        <ele>2127.9</ele>
        <time>2017-08-12T14:13:53Z</time>
      </trkpt>
      <trkpt lat="45.33735" lon="6.63271">
        <ele>2132.8</ele>
        <time>2017-08-12T14:14:16Z</time>
      </trkpt>
    </trkseg>
  </trk>
</gpx>